Time;durP1;ratioP1;P1;durP2;ratioP2;P2;SDS_P1;SDS_P2;PMS_P1;PMS_P2;Temp;Humidity;BMP_temperature;BMP_pressure;BME280_temperature;BME280_humidity;BME280_pressure;Samples;Min_cycle;Max_cycle;Signal;HPM_P1;HPM_P2
2021/12/15 00:00:48;;;;;;;6.50;1.52;;;26.90;99.90;;;;;;5078782;28;20566;-74
2021/12/15 00:03:19;;;;;;;4.93;1.40;;;26.90;99.90;;;;;;5081568;28;20225;-75
2021/12/15 00:05:51;;;;;;;6.40;1.77;;;27.00;99.90;;;;;;5083982;28;20196;-74
2021/12/15 00:08:22;;;;;;;6.63;1.67;;;27.20;99.90;;;;;;5081737;28;20211;-75
2021/12/15 00:10:53;;;;;;;4.78;1.40;;;27.10;99.90;;;;;;5080384;28;20195;-73
2021/12/15 00:13:24;;;;;;;5.88;1.55;;;27.20;99.90;;;;;;5080184;28;20299;-75
2021/12/15 00:15:57;;;;;;;6.47;1.70;;;27.30;99.90;;;;;;5082293;28;20233;-74
2021/12/15 00:18:27;;;;;;;6.97;1.60;;;27.30;99.90;;;;;;5083060;28;20196;-74
2021/12/15 00:20:58;;;;;;;7.18;1.33;;;27.50;99.90;;;;;;5083082;28;20196;-73
2021/12/15 00:23:29;;;;;;;6.68;1.50;;;27.70;99.90;;;;;;5081906;28;20681;-73
2021/12/15 00:26:00;;;;;;;7.18;1.52;;;27.90;99.90;;;;;;5077265;28;20200;-74
2021/12/15 00:28:30;;;;;;;6.80;1.30;;;28.00;99.90;;;;;;5077905;28;20204;-75
2021/12/15 00:31:07;;;;;;;6.68;1.50;;;28.00;99.90;;;;;;5076915;28;20196;-74
2021/12/15 00:33:38;;;;;;;4.70;1.45;;;27.80;99.90;;;;;;5081867;28;20245;-74
2021/12/15 00:36:10;;;;;;;6.13;1.52;;;27.60;99.90;;;;;;5081587;28;20656;-74
2021/12/15 00:38:41;;;;;;;6.00;1.67;;;27.60;99.90;;;;;;5076583;28;20684;-74
2021/12/15 00:41:15;;;;;;;8.00;1.75;;;27.80;99.90;;;;;;5082383;28;20669;-75
2021/12/15 00:43:45;;;;;;;5.55;1.30;;;27.90;99.90;;;;;;5078940;28;20208;-74
2021/12/15 00:46:18;;;;;;;7.18;1.70;;;27.90;99.90;;;;;;5078975;28;20258;-74
2021/12/15 00:48:49;;;;;;;7.97;1.60;;;27.90;99.90;;;;;;5081238;28;20203;-74
2021/12/15 00:51:20;;;;;;;6.25;1.48;;;28.00;99.90;;;;;;5080900;28;20192;-74
2021/12/15 00:53:51;;;;;;;6.05;1.70;;;28.00;99.90;;;;;;5080761;28;20216;-75
2021/12/15 00:56:22;;;;;;;7.70;1.70;;;28.00;99.90;;;;;;5079135;28;20204;-74
2021/12/15 00:58:53;;;;;;;7.57;1.70;;;27.90;99.90;;;;;;5088442;28;20196;-74
2021/12/15 01:01:26;;;;;;;6.03;1.65;;;28.00;99.90;;;;;;5091864;28;20189;-74
2021/12/15 01:03:57;;;;;;;4.13;1.55;;;28.10;99.90;;;;;;5083135;28;20208;-74
2021/12/15 01:06:29;;;;;;;6.47;1.60;;;28.10;99.90;;;;;;5084130;28;20238;-74
2021/12/15 01:09:05;;;;;;;5.07;1.63;;;28.00;99.90;;;;;;5084273;28;20675;-74
2021/12/15 01:11:55;;;;;;;8.25;1.60;;;28.10;99.90;;;;;;5092522;28;20184;-74
2021/12/15 01:14:33;;;;;;;7.35;1.70;;;28.00;99.90;;;;;;5073463;28;20200;-75
2021/12/15 01:19:58;;;;;;;8.57;1.80;;;28.00;99.90;;;;;;5084017;28;20277;-74
2021/12/15 01:22:33;;;;;;;6.90;1.80;;;28.00;99.90;;;;;;5093106;28;20196;-75
2021/12/15 01:25:07;;;;;;;6.28;1.60;;;28.00;99.90;;;;;;5088147;28;20223;-74
2021/12/15 01:27:37;;;;;;;6.07;1.60;;;28.00;99.90;;;;;;5093437;28;20196;-74
2021/12/15 01:30:11;;;;;;;8.50;1.75;;;28.10;99.90;;;;;;5092933;28;20184;-74
2021/12/15 01:32:44;;;;;;;7.95;1.88;;;28.00;99.90;;;;;;5082876;28;20231;-75
2021/12/15 01:35:16;;;;;;;8.55;2.08;;;28.10;99.90;;;;;;5089949;28;20236;-75
2021/12/15 01:37:47;;;;;;;7.45;1.83;;;28.30;99.90;;;;;;5084521;28;20664;-74
2021/12/15 01:40:28;;;;;;;9.10;1.88;;;28.40;99.90;;;;;;5079216;28;20208;-74
2021/12/15 01:42:59;;;;;;;9.65;1.90;;;28.40;99.90;;;;;;5093312;28;20562;-75
2021/12/15 01:48:33;;;;;;;8.15;2.00;;;28.50;99.90;;;;;;4995094;28;20289;-74
2021/12/15 01:51:05;;;;;;;9.73;1.88;;;28.50;99.90;;;;;;5006960;28;20960;-75
2021/12/15 01:53:36;;;;;;;8.07;2.10;;;28.50;99.90;;;;;;5049726;28;20236;-75
2021/12/15 01:56:08;;;;;;;8.10;1.77;;;28.40;99.90;;;;;;5088549;28;20196;-75
2021/12/15 01:58:39;;;;;;;11.93;2.33;;;28.30;99.90;;;;;;5087179;28;20660;-75
2021/12/15 02:01:12;;;;;;;9.88;2.30;;;28.40;99.90;;;;;;5083691;28;20185;-75
2021/12/15 02:03:45;;;;;;;9.15;2.10;;;28.30;99.90;;;;;;5090470;28;20195;-75
2021/12/15 02:06:16;;;;;;;7.47;1.83;;;28.40;99.90;;;;;;5091572;28;20193;-75
2021/12/15 02:08:48;;;;;;;4.40;1.50;;;28.40;99.90;;;;;;5072541;28;20238;-75
2021/12/15 02:11:19;;;;;;;9.60;1.83;;;28.40;99.90;;;;;;5090986;28;20664;-75
2021/12/15 02:13:50;;;;;;;5.35;1.85;;;28.40;99.90;;;;;;5083798;28;20687;-75
2021/12/15 02:16:21;;;;;;;8.45;1.65;;;28.30;99.90;;;;;;5091973;28;20196;-75
2021/12/15 02:18:53;;;;;;;4.88;1.67;;;28.30;99.90;;;;;;5088717;28;20641;-76
2021/12/15 02:21:27;;;;;;;8.02;2.00;;;28.40;99.90;;;;;;5087411;28;20207;-75
2021/12/15 02:24:00;;;;;;;5.45;1.83;;;28.40;99.90;;;;;;5079201;28;20227;-76
2021/12/15 02:26:35;;;;;;;9.43;2.00;;;28.50;99.90;;;;;;5083593;28;20193;-75
2021/12/15 02:29:14;;;;;;;10.55;2.50;;;28.60;99.90;;;;;;5084937;28;20658;-75
2021/12/15 02:31:57;;;;;;;4.75;1.58;;;28.60;99.90;;;;;;5083855;28;20188;-76
2021/12/15 02:34:57;;;;;;;7.90;1.77;;;28.70;99.90;;;;;;5083444;28;20242;-76
2021/12/15 02:37:28;;;;;;;10.48;1.95;;;28.70;99.90;;;;;;5086242;28;20736;-76
2021/12/15 02:40:03;;;;;;;7.85;2.00;;;28.70;99.90;;;;;;5084042;28;20220;-75
2021/12/15 02:42:36;;;;;;;4.75;1.65;;;28.70;99.90;;;;;;5076048;28;20185;-75
2021/12/15 02:45:09;;;;;;;6.20;1.73;;;28.70;99.90;;;;;;5084014;28;20192;-76
2021/12/15 02:47:43;;;;;;;7.53;1.67;;;28.60;99.90;;;;;;5081775;28;20262;-75
2021/12/15 02:50:21;;;;;;;8.88;1.90;;;28.60;99.90;;;;;;5079070;28;20189;-76
2021/12/15 02:52:54;;;;;;;8.15;1.80;;;28.50;99.90;;;;;;5075561;28;20215;-76
2021/12/15 02:55:25;;;;;;;5.40;1.58;;;28.50;99.90;;;;;;5086884;28;20200;-76
2021/12/15 02:57:56;;;;;;;7.82;1.92;;;28.40;99.90;;;;;;5083250;28;20237;-75
2021/12/15 03:00:35;;;;;;;7.38;1.67;;;28.60;99.90;;;;;;5086276;28;20193;-75
2021/12/15 03:03:43;;;;;;;10.05;1.75;;;28.40;99.90;;;;;;5093374;28;20422;-76
2021/12/15 03:06:18;;;;;;;5.47;1.25;;;28.40;99.90;;;;;;5094253;28;20196;-75
2021/12/15 03:09:00;;;;;;;4.93;1.30;;;28.50;99.90;;;;;;5092847;28;20632;-76
2021/12/15 03:17:03;;;;;;;5.32;1.58;;;28.50;99.90;;;;;;5088047;28;20199;-75
2021/12/15 03:19:34;;;;;;;5.65;1.10;;;28.50;99.90;;;;;;5088311;28;20207;-75
2021/12/15 03:22:05;;;;;;;6.90;1.48;;;28.40;99.90;;;;;;5084490;28;20644;-76
2021/12/15 03:24:38;;;;;;;5.32;1.17;;;28.30;99.90;;;;;;5082871;28;20547;-75
2021/12/15 03:27:17;;;;;;;6.38;1.20;;;28.20;99.90;;;;;;5085617;28;20188;-75
2021/12/15 03:35:35;;;;;;;3.85;0.98;;;28.10;99.90;;;;;;5075384;28;20235;-76
2021/12/15 03:38:06;;;;;;;6.60;1.05;;;28.30;99.90;;;;;;5083883;28;20275;-75
2021/12/15 03:40:47;;;;;;;5.68;1.58;;;28.30;99.90;;;;;;5086710;28;20216;-76
2021/12/15 03:43:20;;;;;;;4.35;1.40;;;28.20;99.90;;;;;;5093606;28;20187;-76
2021/12/15 03:45:55;;;;;;;6.07;1.10;;;28.00;99.90;;;;;;5082652;28;20612;-75
2021/12/15 03:48:28;;;;;;;3.33;1.20;;;28.10;99.90;;;;;;5093489;28;20198;-77
2021/12/15 03:51:01;;;;;;;8.73;1.20;;;28.20;99.90;;;;;;5090899;28;20257;-75
2021/12/15 03:53:32;;;;;;;6.30;1.30;;;28.10;99.90;;;;;;5090981;28;20208;-75
2021/12/15 03:56:07;;;;;;;5.82;1.23;;;28.00;99.90;;;;;;5092045;28;20192;-75
2021/12/15 03:58:37;;;;;;;4.72;1.13;;;28.00;99.90;;;;;;5082797;28;20641;-81
2021/12/15 04:01:11;;;;;;;6.47;1.35;;;27.80;99.90;;;;;;5090216;28;20640;-76
2021/12/15 04:03:45;;;;;;;4.38;1.17;;;27.80;99.90;;;;;;5093231;28;20231;-76
2021/12/15 04:06:21;;;;;;;4.30;1.10;;;27.70;99.90;;;;;;5090839;28;20203;-77
2021/12/15 04:08:52;;;;;;;6.35;1.10;;;27.80;99.90;;;;;;5090219;28;20180;-75
2021/12/15 04:11:28;;;;;;;6.55;1.20;;;27.70;99.90;;;;;;5085903;28;20189;-76
2021/12/15 04:14:00;;;;;;;7.75;1.40;;;27.70;99.90;;;;;;5085359;28;20237;-76
2021/12/15 04:16:45;;;;;;;2.75;1.00;;;27.80;99.90;;;;;;5090310;28;20241;-76
2021/12/15 04:19:19;;;;;;;6.50;1.00;;;27.90;99.90;;;;;;5091259;28;20271;-77
2021/12/15 04:21:51;;;;;;;7.10;1.30;;;28.00;99.90;;;;;;5088349;28;20192;-76
2021/12/15 04:24:23;;;;;;;4.38;1.10;;;27.90;99.90;;;;;;5091700;28;20199;-76
2021/12/15 04:26:58;;;;;;;5.40;1.10;;;27.90;99.90;;;;;;5094192;28;20220;-76
2021/12/15 04:29:29;;;;;;;4.63;1.30;;;28.00;99.90;;;;;;5093317;28;20200;-75
2021/12/15 04:32:03;;;;;;;4.93;1.05;;;28.20;99.90;;;;;;5093202;28;20237;-76
2021/12/15 04:34:33;;;;;;;6.30;1.10;;;28.10;99.90;;;;;;5081448;28;20236;-75
2021/12/15 04:37:04;;;;;;;3.63;1.00;;;27.90;99.90;;;;;;5089178;28;20188;-75
2021/12/15 04:39:35;;;;;;;5.40;1.27;;;27.80;99.90;;;;;;5085020;28;20193;-75
2021/12/15 04:42:11;;;;;;;7.55;1.20;;;27.90;99.90;;;;;;5093573;28;20691;-75
2021/12/15 04:44:42;;;;;;;5.05;0.98;;;27.90;99.90;;;;;;5089844;28;20189;-74
2021/12/15 04:47:16;;;;;;;3.58;1.20;;;27.90;99.90;;;;;;5081158;28;20185;-75
2021/12/15 04:49:50;;;;;;;6.40;1.13;;;28.00;99.90;;;;;;5088390;28;20185;-75
2021/12/15 04:52:22;;;;;;;3.85;1.02;;;28.20;99.90;;;;;;5086152;28;20292;-74
2021/12/15 04:54:53;;;;;;;3.58;1.00;;;28.30;99.90;;;;;;5088283;28;20205;-74
2021/12/15 04:57:26;;;;;;;5.32;1.10;;;28.30;99.90;;;;;;5090613;28;20555;-75
2021/12/15 04:59:59;;;;;;;3.53;1.00;;;28.40;99.90;;;;;;5086685;28;20196;-75
2021/12/15 05:02:30;;;;;;;3.30;1.08;;;28.50;99.90;;;;;;5082624;28;20189;-74
2021/12/15 05:05:00;;;;;;;3.22;0.80;;;28.40;99.90;;;;;;5090885;28;20292;-75
2021/12/15 05:07:31;;;;;;;3.40;0.80;;;28.30;99.90;;;;;;5090079;28;20601;-75
2021/12/15 05:10:02;;;;;;;4.28;0.90;;;28.40;99.90;;;;;;5086804;28;20193;-75
2021/12/15 05:12:34;;;;;;;4.88;1.05;;;28.40;99.90;;;;;;5081907;28;20189;-75
2021/12/15 05:15:06;;;;;;;4.75;1.05;;;28.40;99.90;;;;;;5086697;28;20267;-75
2021/12/15 05:17:36;;;;;;;10.15;1.20;;;28.40;99.90;;;;;;5075699;28;20208;-74
2021/12/15 05:20:10;;;;;;;4.75;1.10;;;28.50;99.90;;;;;;5091430;28;20271;-75
2021/12/15 05:22:41;;;;;;;3.88;1.35;;;28.50;99.90;;;;;;5086343;28;20683;-75
2021/12/15 05:25:13;;;;;;;8.32;1.20;;;28.60;99.90;;;;;;5081991;28;20197;-76
2021/12/15 05:27:45;;;;;;;6.18;1.10;;;28.50;99.90;;;;;;5085189;28;20184;-75
2021/12/15 05:30:19;;;;;;;5.43;1.15;;;28.50;99.90;;;;;;5086458;28;20239;-75
2021/12/15 05:32:50;;;;;;;4.90;1.02;;;28.80;99.90;;;;;;5079919;28;20195;-75
2021/12/15 05:35:23;;;;;;;6.03;1.10;;;28.70;99.90;;;;;;5089218;28;20666;-75
2021/12/15 05:37:57;;;;;;;6.28;1.42;;;28.60;99.90;;;;;;5083727;28;20211;-75
2021/12/15 05:40:29;;;;;;;6.80;1.30;;;28.50;99.90;;;;;;5081476;28;20184;-76
2021/12/15 05:43:03;;;;;;;7.78;1.20;;;28.30;99.90;;;;;;5073055;28;20246;-75
2021/12/15 05:45:37;;;;;;;5.05;1.00;;;28.10;99.90;;;;;;5075703;28;20189;-75
2021/12/15 05:48:10;;;;;;;3.78;1.00;;;28.00;99.90;;;;;;5077247;28;20599;-75
2021/12/15 05:50:41;;;;;;;6.55;1.08;;;27.90;99.90;;;;;;5091909;28;20636;-75
2021/12/15 05:53:12;;;;;;;5.13;0.98;;;27.90;99.90;;;;;;5080159;28;20498;-75
2021/12/15 05:55:44;;;;;;;4.65;0.98;;;28.00;99.90;;;;;;5088430;28;20671;-76
2021/12/15 05:58:17;;;;;;;4.13;0.90;;;28.20;99.90;;;;;;5090019;28;20686;-75
2021/12/15 06:00:48;;;;;;;5.90;1.30;;;28.30;99.90;;;;;;5074814;28;20253;-76
2021/12/15 06:03:22;;;;;;;4.45;1.23;;;28.10;99.90;;;;;;5083115;28;20192;-75
2021/12/15 06:05:53;;;;;;;4.75;1.10;;;28.00;99.90;;;;;;5085859;28;20555;-75
2021/12/15 06:08:24;;;;;;;5.07;1.10;;;28.00;99.90;;;;;;5080113;28;20196;-76
2021/12/15 06:10:55;;;;;;;3.08;0.90;;;28.00;99.90;;;;;;5085646;28;20185;-77
2021/12/15 06:13:29;;;;;;;3.38;1.00;;;28.00;99.90;;;;;;5086738;28;20187;-76
2021/12/15 06:16:02;;;;;;;2.40;0.80;;;27.90;99.90;;;;;;5083530;28;20221;-77
2021/12/15 06:18:32;;;;;;;2.90;1.00;;;27.80;99.90;;;;;;5085852;28;20189;-75
2021/12/15 06:21:03;;;;;;;5.35;1.20;;;27.70;99.90;;;;;;5080198;28;20196;-76
2021/12/15 06:23:34;;;;;;;4.20;1.05;;;27.70;99.90;;;;;;5083403;28;20567;-76
2021/12/15 06:26:10;;;;;;;2.33;0.80;;;27.80;99.90;;;;;;5085507;28;20189;-75
2021/12/15 06:28:42;;;;;;;5.47;1.17;;;27.80;99.90;;;;;;5085365;28;20200;-76
2021/12/15 06:31:15;;;;;;;3.28;0.88;;;28.00;99.90;;;;;;5084745;28;20558;-76
2021/12/15 06:33:47;;;;;;;4.35;1.00;;;28.10;99.90;;;;;;5089452;28;20220;-75
2021/12/15 06:36:20;;;;;;;2.63;0.90;;;28.10;99.90;;;;;;5087535;28;20204;-76
2021/12/15 06:38:59;;;;;;;4.63;1.02;;;28.20;99.90;;;;;;5085191;28;20625;-75
2021/12/15 06:41:29;;;;;;;3.63;0.90;;;28.10;99.90;;;;;;5089984;28;20189;-75
2021/12/15 06:44:02;;;;;;;6.20;1.13;;;28.10;99.90;;;;;;5093393;28;20188;-74
2021/12/15 06:47:03;;;;;;;2.97;1.13;;;28.10;99.90;;;;;;5082607;28;20186;-74
2021/12/15 06:58:15;;;;;;;3.33;1.08;;;28.00;99.90;;;;;;5083951;28;20219;-76
2021/12/15 07:00:51;;;;;;;4.15;1.10;;;28.00;99.90;;;;;;5090963;28;20184;-75
2021/12/15 07:03:23;;;;;;;2.83;1.00;;;28.10;99.90;;;;;;5084216;28;20204;-75
2021/12/15 07:05:55;;;;;;;5.95;1.20;;;28.20;99.90;;;;;;5091420;28;20185;-75
2021/12/15 07:08:28;;;;;;;5.70;1.50;;;28.20;99.90;;;;;;5095671;28;20612;-75
2021/12/15 07:11:00;;;;;;;5.63;1.20;;;28.20;99.90;;;;;;5095103;28;20610;-75
2021/12/15 07:13:31;;;;;;;6.15;1.17;;;28.30;99.90;;;;;;5080828;28;20191;-74
2021/12/15 07:16:07;;;;;;;4.75;1.20;;;28.20;99.90;;;;;;5091660;28;20293;-75
2021/12/15 07:18:47;;;;;;;5.70;1.00;;;28.10;99.90;;;;;;5095126;28;20671;-74
2021/12/15 07:21:23;;;;;;;4.80;1.13;;;28.00;99.90;;;;;;5086888;28;20193;-75
2021/12/15 07:23:56;;;;;;;6.15;1.50;;;28.00;99.90;;;;;;5083022;28;20268;-74
2021/12/15 07:26:26;;;;;;;8.70;1.23;;;28.00;99.90;;;;;;5091943;28;20829;-75
2021/12/15 07:28:57;;;;;;;4.68;1.08;;;28.00;99.90;;;;;;5081368;28;20188;-75
2021/12/15 07:31:30;;;;;;;4.80;1.38;;;28.00;99.90;;;;;;5077711;28;20195;-75
2021/12/15 07:34:00;;;;;;;4.03;1.00;;;28.00;99.90;;;;;;5087006;28;20273;-74
2021/12/15 07:36:31;;;;;;;5.18;1.20;;;28.00;99.90;;;;;;5086255;28;20204;-74
2021/12/15 07:39:02;;;;;;;8.10;1.42;;;28.00;99.90;;;;;;5086546;28;20188;-74
2021/12/15 07:41:41;;;;;;;5.55;1.40;;;27.90;99.90;;;;;;5094242;28;20180;-74
2021/12/15 07:44:12;;;;;;;2.80;1.13;;;27.80;99.90;;;;;;5093845;28;20188;-75
2021/12/15 07:46:44;;;;;;;8.25;1.38;;;27.80;99.90;;;;;;5092223;28;20189;-75
2021/12/15 07:49:15;;;;;;;6.07;1.73;;;27.70;99.90;;;;;;5090763;28;20563;-74
2021/12/15 07:51:46;;;;;;;5.97;1.50;;;27.70;99.90;;;;;;5094727;28;20189;-75
2021/12/15 07:54:19;;;;;;;4.82;1.20;;;27.70;99.90;;;;;;5091935;28;20185;-75
2021/12/15 07:56:50;;;;;;;3.10;1.02;;;27.70;99.90;;;;;;5088337;28;20615;-75
2021/12/15 07:59:20;;;;;;;4.63;1.45;;;27.60;99.90;;;;;;5091681;28;20632;-75
2021/12/15 08:01:56;;;;;;;4.38;1.20;;;27.40;99.90;;;;;;5094415;28;20640;-75
2021/12/15 08:04:26;;;;;;;6.78;1.50;;;27.30;99.90;;;;;;5091350;28;20196;-74
2021/12/15 08:06:57;;;;;;;4.82;1.52;;;27.20;99.90;;;;;;5085394;28;20196;-75
2021/12/15 08:09:30;;;;;;;6.63;1.70;;;27.10;99.90;;;;;;5090951;28;20200;-75
2021/12/15 08:12:01;;;;;;;7.70;1.70;;;26.90;99.90;;;;;;5092625;28;20663;-75
2021/12/15 08:14:31;;;;;;;6.57;1.70;;;26.80;99.90;;;;;;5086804;28;20262;-75
2021/12/15 08:17:04;;;;;;;5.38;1.63;;;26.80;99.90;;;;;;5085996;28;20547;-75
2021/12/15 08:19:35;;;;;;;11.02;1.80;;;26.70;99.90;;;;;;5089388;28;20185;-74
2021/12/15 08:22:06;;;;;;;6.57;1.90;;;26.70;99.90;;;;;;5089547;28;20184;-75
2021/12/15 08:24:36;;;;;;;7.13;1.77;;;26.60;99.90;;;;;;5084276;28;20189;-75
2021/12/15 08:27:07;;;;;;;8.48;1.50;;;26.50;99.90;;;;;;5088487;28;20625;-75
2021/12/15 08:29:38;;;;;;;7.22;1.35;;;26.60;99.90;;;;;;5084439;28;20602;-75
2021/12/15 08:32:11;;;;;;;5.78;1.60;;;26.50;99.90;;;;;;5085579;28;20213;-75
2021/12/15 08:34:42;;;;;;;9.50;1.52;;;26.50;99.90;;;;;;5078324;28;20224;-75
2021/12/15 08:37:15;;;;;;;5.70;1.55;;;26.50;99.90;;;;;;5085415;28;20184;-74
2021/12/15 08:39:47;;;;;;;4.75;1.40;;;26.40;99.90;;;;;;5081830;28;20277;-75
2021/12/15 08:42:21;;;;;;;5.20;1.60;;;26.40;99.90;;;;;;5084026;28;20208;-74
2021/12/15 08:44:51;;;;;;;7.38;1.40;;;26.30;99.90;;;;;;5083250;28;20214;-75
2021/12/15 08:47:24;;;;;;;4.60;1.23;;;26.30;99.90;;;;;;5086468;28;20192;-75
2021/12/15 08:49:55;;;;;;;8.27;1.45;;;26.30;99.90;;;;;;5078501;28;20188;-75
2021/12/15 08:52:29;;;;;;;4.60;1.77;;;26.30;99.90;;;;;;5091958;28;20220;-76
2021/12/15 08:54:59;;;;;;;8.20;1.30;;;26.50;99.90;;;;;;5085518;28;20691;-76
2021/12/15 08:57:30;;;;;;;5.97;1.10;;;26.70;99.90;;;;;;5081588;28;20189;-74
2021/12/15 09:00:01;;;;;;;9.15;1.33;;;26.80;99.90;;;;;;5080491;28;20191;-75
2021/12/15 09:02:34;;;;;;;3.17;0.82;;;26.70;99.90;;;;;;5085341;28;20640;-75
2021/12/15 09:05:06;;;;;;;3.50;1.00;;;26.50;99.90;;;;;;5086204;28;20295;-75
2021/12/15 09:07:36;;;;;;;5.90;1.23;;;26.20;99.90;;;;;;5090085;28;20585;-76
2021/12/15 09:10:10;;;;;;;2.58;0.98;;;25.80;99.90;;;;;;5081111;28;20189;-76
2021/12/15 09:12:40;;;;;;;3.85;1.10;;;25.50;99.90;;;;;;5081933;28;20193;-76
2021/12/15 09:15:12;;;;;;;3.95;1.10;;;25.10;99.90;;;;;;5083535;28;20232;-76
2021/12/15 09:17:47;;;;;;;3.40;1.30;;;24.60;99.90;;;;;;5082143;28;20184;-74
2021/12/15 09:20:21;;;;;;;4.70;1.30;;;24.30;99.90;;;;;;5081666;28;20200;-75
2021/12/15 09:22:52;;;;;;;5.15;1.48;;;24.00;99.90;;;;;;5084492;28;20637;-74
2021/12/15 09:25:23;;;;;;;5.32;1.45;;;23.70;99.90;;;;;;5084513;28;20187;-75
2021/12/15 09:27:58;;;;;;;6.05;1.60;;;23.50;99.90;;;;;;5082848;28;20648;-75
2021/12/15 09:30:32;;;;;;;4.00;1.30;;;23.50;99.90;;;;;;5078605;28;20271;-75
2021/12/15 09:33:05;;;;;;;6.88;1.30;;;23.30;99.90;;;;;;5085312;28;20324;-75
2021/12/15 09:35:36;;;;;;;3.75;1.27;;;23.20;99.90;;;;;;5077867;28;20236;-75
2021/12/15 09:38:17;;;;;;;4.32;1.52;;;23.00;99.90;;;;;;5091530;28;20184;-75
2021/12/15 09:40:49;;;;;;;4.32;1.60;;;22.90;99.90;;;;;;5085093;28;20192;-75
2021/12/15 09:43:20;;;;;;;2.92;1.60;;;22.70;99.90;;;;;;5079669;28;20189;-75
2021/12/15 09:45:55;;;;;;;6.03;1.90;;;22.60;99.90;;;;;;5081569;28;20193;-75
2021/12/15 10:02:54;;;;;;;18.60;4.15;;;22.00;99.90;;;;;;5063320;28;20279;-77
2021/12/15 10:19:32;;;;;;;23.02;3.58;;;21.60;99.90;;;;;;5087895;28;20678;-78
2021/12/15 10:22:17;;;;;;;16.08;3.55;;;21.60;99.90;;;;;;5093227;28;20188;-78
2021/12/15 10:24:56;;;;;;;12.40;2.85;;;21.50;99.90;;;;;;5087643;28;20189;-78
2021/12/15 10:27:40;;;;;;;13.30;3.10;;;21.60;99.90;;;;;;5093153;28;20245;-78
2021/12/15 10:30:26;;;;;;;15.30;2.92;;;21.60;99.90;;;;;;5091528;28;20360;-78
2021/12/15 10:33:01;;;;;;;14.88;3.17;;;21.70;99.90;;;;;;5076391;28;20201;-78
2021/12/15 10:35:34;;;;;;;13.18;2.70;;;21.70;99.90;;;;;;5085312;28;20231;-77
2021/12/15 10:38:31;;;;;;;12.35;2.95;;;21.70;99.90;;;;;;5095381;28;20188;-78
2021/12/15 10:41:07;;;;;;;13.57;3.25;;;21.60;99.90;;;;;;5088776;28;20188;-79
2021/12/15 10:43:41;;;;;;;16.50;2.70;;;21.60;99.90;;;;;;5087415;28;20215;-79
2021/12/15 10:46:14;;;;;;;15.35;2.63;;;21.60;99.90;;;;;;5091693;28;20247;-78
2021/12/15 10:48:52;;;;;;;10.95;2.60;;;21.60;99.90;;;;;;5087498;28;20229;-79
2021/12/15 10:51:41;;;;;;;15.20;2.83;;;21.60;99.90;;;;;;5095500;28;20553;-79
2021/12/15 10:54:16;;;;;;;12.57;2.67;;;21.60;99.90;;;;;;5088194;28;20195;-79
2021/12/15 10:56:54;;;;;;;15.50;2.78;;;21.50;99.90;;;;;;5095092;28;20208;-79
2021/12/15 10:59:27;;;;;;;14.60;2.90;;;21.50;99.90;;;;;;5076255;28;20196;-80
2021/12/15 11:02:02;;;;;;;13.48;2.90;;;21.50;99.90;;;;;;5084915;28;20238;-79
2021/12/15 11:04:44;;;;;;;19.73;2.97;;;21.50;99.90;;;;;;5094618;28;20184;-77
2021/12/15 11:07:31;;;;;;;18.92;2.80;;;21.50;99.90;;;;;;5089474;28;20200;-79
2021/12/15 11:10:08;;;;;;;14.30;3.17;;;21.50;99.90;;;;;;5083055;28;20287;-79
2021/12/15 11:12:40;;;;;;;14.95;2.90;;;21.50;99.90;;;;;;5084397;28;20683;-77
2021/12/15 11:15:15;;;;;;;18.08;3.28;;;21.50;99.90;;;;;;5087587;28;20554;-77
2021/12/15 11:17:47;;;;;;;22.10;3.25;;;21.50;99.90;;;;;;5081144;28;20648;-78
2021/12/15 11:20:22;;;;;;;16.63;2.97;;;21.50;99.90;;;;;;5084418;28;20191;-76
2021/12/15 11:23:00;;;;;;;25.15;3.45;;;21.50;99.90;;;;;;5091151;28;20248;-77
2021/12/15 11:25:39;;;;;;;22.50;3.80;;;21.60;99.90;;;;;;5081756;28;20237;-77
2021/12/15 11:28:15;;;;;;;27.75;4.13;;;21.50;99.90;;;;;;5075732;28;20185;-78
2021/12/15 11:30:49;;;;;;;20.08;3.83;;;21.50;99.90;;;;;;5079770;28;20218;-78
2021/12/15 11:33:21;;;;;;;20.67;3.60;;;21.50;99.90;;;;;;5086449;28;20199;-78
2021/12/15 11:36:03;;;;;;;17.13;3.63;;;21.50;99.90;;;;;;5091696;28;20205;-77
2021/12/15 11:38:37;;;;;;;26.50;3.67;;;21.50;99.90;;;;;;5086559;28;20196;-76
2021/12/15 11:41:21;;;;;;;19.60;3.22;;;21.40;99.90;;;;;;5093694;28;20195;-76
2021/12/15 11:43:56;;;;;;;19.42;3.33;;;21.50;99.90;;;;;;5085289;28;20200;-76
2021/12/15 11:46:31;;;;;;;17.27;3.15;;;21.50;99.90;;;;;;5093264;28;20224;-76
2021/12/15 11:49:05;;;;;;;25.88;3.67;;;21.50;99.90;;;;;;5081810;28;20185;-77
2021/12/15 11:51:44;;;;;;;23.13;3.70;;;21.50;99.90;;;;;;5081061;28;20188;-77
2021/12/15 11:54:27;;;;;;;20.95;3.80;;;21.50;99.90;;;;;;5088377;28;20188;-76
2021/12/15 11:57:03;;;;;;;17.60;3.15;;;21.60;99.90;;;;;;5089648;28;20295;-78
2021/12/15 11:59:55;;;;;;;21.40;3.88;;;21.50;99.90;;;;;;5087335;28;20222;-78
2021/12/15 12:02:38;;;;;;;18.35;3.38;;;21.50;99.90;;;;;;5089951;28;20200;-77
2021/12/15 12:05:20;;;;;;;21.33;4.00;;;21.60;99.90;;;;;;5085769;28;20208;-77
2021/12/15 12:07:54;;;;;;;21.88;3.88;;;21.60;99.90;;;;;;5090177;28;20191;-78
2021/12/15 12:10:30;;;;;;;27.38;3.78;;;21.60;99.90;;;;;;5084453;28;20280;-77
2021/12/15 12:13:07;;;;;;;22.40;3.80;;;21.70;99.90;;;;;;5088246;28;20540;-78
2021/12/15 12:15:55;;;;;;;19.55;3.47;;;21.60;99.90;;;;;;5088316;28;20246;-75
2021/12/15 12:18:30;;;;;;;20.95;3.92;;;21.60;99.90;;;;;;5088755;28;20181;-75
2021/12/15 12:21:09;;;;;;;19.33;3.53;;;21.70;99.90;;;;;;5092929;28;20197;-74
2021/12/15 12:23:45;;;;;;;22.95;3.75;;;21.70;99.90;;;;;;5088985;28;20664;-75
2021/12/15 12:26:16;;;;;;;18.13;3.22;;;21.70;99.90;;;;;;5075264;28;20227;-80
2021/12/15 12:28:52;;;;;;;22.08;4.30;;;21.70;99.90;;;;;;5085531;28;20195;-75
2021/12/15 12:31:25;;;;;;;19.00;3.70;;;21.70;99.90;;;;;;5090068;28;20192;-78
2021/12/15 12:33:55;;;;;;;22.50;3.85;;;21.70;99.90;;;;;;5092606;28;20772;-76
2021/12/15 12:36:32;;;;;;;21.67;3.83;;;21.70;99.90;;;;;;5092770;28;20207;-76
2021/12/15 12:39:06;;;;;;;18.80;3.72;;;21.70;99.90;;;;;;5088023;28;20198;-76
2021/12/15 12:41:43;;;;;;;18.63;3.33;;;21.70;99.90;;;;;;5077427;28;20193;-76
2021/12/15 12:44:15;;;;;;;20.80;3.75;;;21.70;99.90;;;;;;5093753;28;20198;-76
2021/12/15 12:47:01;;;;;;;12.30;3.13;;;21.70;99.90;;;;;;5076687;28;20208;-76
2021/12/15 12:50:17;;;;;;;20.38;3.28;;;21.70;99.90;;;;;;5081537;28;20568;-76
2021/12/15 13:01:26;;;;;;;20.70;3.53;;;21.70;99.90;;;;;;5081819;28;20199;-77
2021/12/15 13:03:58;;;;;;;15.00;3.42;;;21.60;99.90;;;;;;5078767;28;20201;-78
2021/12/15 13:06:30;;;;;;;18.30;3.42;;;21.70;99.90;;;;;;5084803;28;20296;-78
2021/12/15 13:09:06;;;;;;;19.55;3.55;;;21.70;99.90;;;;;;5079253;28;20265;-76
2021/12/15 13:11:39;;;;;;;27.58;3.80;;;21.60;99.90;;;;;;5079504;28;20200;-76
2021/12/15 13:14:12;;;;;;;20.00;3.38;;;21.60;99.90;;;;;;5080900;28;20231;-75
2021/12/15 13:16:49;;;;;;;19.70;3.30;;;21.60;99.90;;;;;;5082458;28;20216;-76
2021/12/15 13:19:24;;;;;;;16.48;3.40;;;21.60;99.90;;;;;;5079899;28;20205;-76
2021/12/15 13:22:05;;;;;;;17.67;3.60;;;21.70;99.90;;;;;;5083140;28;20200;-77
2021/12/15 13:30:41;;;;;;;16.70;3.20;;;21.70;99.90;;;;;;5080322;28;20287;-77
2021/12/15 13:33:16;;;;;;;19.85;3.38;;;21.60;99.90;;;;;;5079240;28;20672;-76
2021/12/15 13:35:53;;;;;;;20.13;3.38;;;21.70;99.90;;;;;;5082247;28;20242;-79
2021/12/15 13:38:32;;;;;;;20.65;3.38;;;21.60;99.90;;;;;;5078319;28;20256;-76
2021/12/15 13:41:26;;;;;;;14.20;3.10;;;21.70;99.90;;;;;;5077906;28;20208;-76
2021/12/15 13:44:04;;;;;;;13.25;3.17;;;21.70;99.90;;;;;;5076207;28;20199;-79
2021/12/15 13:46:41;;;;;;;19.02;3.53;;;21.70;99.90;;;;;;5080523;28;20184;-76
2021/12/15 13:49:41;;;;;;;18.08;3.03;;;21.70;99.90;;;;;;5086250;28;20184;-77
2021/12/15 13:52:29;;;;;;;19.60;3.35;;;21.70;99.90;;;;;;5092482;28;20271;-76
2021/12/15 13:55:22;;;;;;;21.08;3.60;;;21.60;99.90;;;;;;5073905;28;20207;-78
2021/12/15 13:58:18;;;;;;;15.13;3.15;;;21.60;99.90;;;;;;5083343;28;20672;-79
2021/12/15 14:00:57;;;;;;;13.68;2.65;;;21.60;99.90;;;;;;5087006;28;20192;-77
2021/12/15 14:03:37;;;;;;;18.02;3.47;;;21.60;99.90;;;;;;5073245;28;20181;-76
2021/12/15 14:06:15;;;;;;;13.27;3.08;;;21.60;99.90;;;;;;5081539;28;20536;-76
2021/12/15 14:08:47;;;;;;;14.65;2.88;;;21.60;99.90;;;;;;5092811;28;20179;-76
2021/12/15 14:11:22;;;;;;;15.93;2.95;;;21.60;99.90;;;;;;5076216;28;20188;-76
2021/12/15 14:14:02;;;;;;;15.57;3.45;;;21.60;99.90;;;;;;5083715;28;20207;-76
2021/12/15 14:16:51;;;;;;;16.13;3.13;;;21.70;99.90;;;;;;5083115;28;20211;-76
2021/12/15 14:19:29;;;;;;;14.88;3.42;;;21.60;99.90;;;;;;5089650;28;20184;-77
2021/12/15 14:22:05;;;;;;;17.70;3.20;;;21.60;99.90;;;;;;5082650;28;20197;-77
2021/12/15 14:24:36;;;;;;;18.55;3.53;;;21.60;99.90;;;;;;5079451;28;20574;-77
2021/12/15 14:27:10;;;;;;;14.02;2.88;;;21.50;99.90;;;;;;5084226;28;20242;-77
2021/12/15 14:29:42;;;;;;;21.90;3.10;;;21.60;99.90;;;;;;5081753;28;20195;-76